St. David's Bench

*Note: All times are displayed in the local standard time of the station location.
**Rain - Equipment is designed to accurately record liquid precipitation; under conditions when precipitation is not in liquid form, the data displayed may not properly reflect rainfall values.

Date Max Temp
(°C)
Min Temp
(°C)
Avg Temp
(°C)
Rain (mm) Avg RH (%)
Fri, Dec 14, 2018 6.5 1.7 3.9 1.6 82.0
Thu, Dec 13, 2018 6.9 -2.7 1.7 1.0 87.5
Wed, Dec 12, 2018 1.5 -4.5 -0.6 0.2 85.2
Tue, Dec 11, 2018 0.0 -1.7 -1.1 0.0 83.3
Mon, Dec 10, 2018 1.1 -2.7 -0.7 0.0 79.7
Sun, Dec 09, 2018 0.9 -7.6 -2.6 0.0 75.4
Sat, Dec 08, 2018 -0.2 -6.1 -3.2 0.0 76.0
DateTime Avg Temp (°C) Rain (mm) RH (%)
Sat, Dec 15, 2018 18:00 2.1 0.0 90.6
Sat, Dec 15, 2018 17:00 2.9 0.0 87.6
Sat, Dec 15, 2018 16:00 3.4 0.0 85.7
Sat, Dec 15, 2018 15:00 3.8 0.0 84.8
Sat, Dec 15, 2018 14:00 4.2 0.0 81.9
Sat, Dec 15, 2018 13:00 4.2 0.0 81.6
Sat, Dec 15, 2018 12:00 3.6 0.0 85.2
Sat, Dec 15, 2018 11:00 3.0 0.0 90.1
Sat, Dec 15, 2018 10:00 2.4 0.0 94.7
Sat, Dec 15, 2018 09:00 1.9 0.0 98.4
Sat, Dec 15, 2018 08:00 1.4 0.0 99.9
Sat, Dec 15, 2018 07:00 1.5 0.0 99.9
Sat, Dec 15, 2018 06:00 1.3 0.0 99.7
Sat, Dec 15, 2018 05:00 -0.2 0.0 99.3
Sat, Dec 15, 2018 04:00 0.3 0.0 97.9
Sat, Dec 15, 2018 03:00 2.8 0.0 90.9
Sat, Dec 15, 2018 02:00 3.5 0.0 87.4
Sat, Dec 15, 2018 01:00 3.8 0.0 86.5
Sat, Dec 15, 2018 00:00 4.7 0.0 84.4
Fri, Dec 14, 2018 23:00 4.3 0.0 85.3
Fri, Dec 14, 2018 22:00 4.6 0.0 84.3
Fri, Dec 14, 2018 21:00 4.6 0.0 82.4
Fri, Dec 14, 2018 20:00 4.3 0.0 86.1
Fri, Dec 14, 2018 19:00 4.0 0.0 81.8
Fri, Dec 14, 2018 18:00 3.5 0.0 81.1
Fri, Dec 14, 2018 17:00 5.8 0.0 71.0
Fri, Dec 14, 2018 16:00 6.4 0.0 70.2
Fri, Dec 14, 2018 15:00 6.2 0.0 73.8
Fri, Dec 14, 2018 14:00 5.5 0.0 78.0
Fri, Dec 14, 2018 13:00 4.8 0.0 82.8
Fri, Dec 14, 2018 12:00 4.1 0.4 91.2
Fri, Dec 14, 2018 11:00 4.0 1.0 88.2
Fri, Dec 14, 2018 10:00 4.1 0.2 81.8
Fri, Dec 14, 2018 09:00 3.8 0.0 79.5
Fri, Dec 14, 2018 08:00 3.4 0.0 81.9
Fri, Dec 14, 2018 07:00 3.2 0.0 80.7
Fri, Dec 14, 2018 06:00 2.9 0.0 81.6
Fri, Dec 14, 2018 05:00 2.5 0.0 82.6
Fri, Dec 14, 2018 04:00 2.3 0.0 82.9
Fri, Dec 14, 2018 03:00 2.0 0.0 84.0
Fri, Dec 14, 2018 02:00 1.8 0.0 86.4
Fri, Dec 14, 2018 01:00 2.2 0.0 85.2
Fri, Dec 14, 2018 00:00 2.3 0.0 83.9
Thu, Dec 13, 2018 23:00 2.5 0.0 82.6
Thu, Dec 13, 2018 22:00 1.5 0.0 86.4
Thu, Dec 13, 2018 21:00 1.7 0.0 86.7
Thu, Dec 13, 2018 20:00 0.6 0.0 95.2
Thu, Dec 13, 2018 19:00 1.4 0.0 91.7


asterix Register now to access more data! asterix